sensor_id;sensor_type;location;lat;lon;timestamp;P1;durP1;ratioP1;P2;durP2;ratioP2
28007;SDS011;15333;50.010;20.020;2022-12-19T00:02:38;355.80;;;148.25;;
28007;SDS011;15333;50.010;20.020;2022-12-19T00:05:39;363.67;;;151.60;;
28007;SDS011;15333;50.010;20.020;2022-12-19T00:08:41;344.90;;;146.85;;
28007;SDS011;15333;50.010;20.020;2022-12-19T00:11:47;339.55;;;136.80;;
28007;SDS011;15333;50.010;20.020;2022-12-19T00:14:48;334.73;;;132.60;;
28007;SDS011;15333;50.010;20.020;2022-12-19T00:17:49;338.20;;;137.23;;
28007;SDS011;15333;50.010;20.020;2022-12-19T00:21:14;308.10;;;124.80;;
28007;SDS011;15333;50.010;20.020;2022-12-19T00:24:13;296.27;;;116.88;;
28007;SDS011;15333;50.010;20.020;2022-12-19T00:27:14;303.48;;;118.53;;
28007;SDS011;15333;50.010;20.020;2022-12-19T00:30:15;289.42;;;111.75;;
28007;SDS011;15333;50.010;20.020;2022-12-19T00:33:16;321.48;;;127.45;;
28007;SDS011;15333;50.010;20.020;2022-12-19T00:36:21;317.85;;;124.10;;
28007;SDS011;15333;50.010;20.020;2022-12-19T00:39:26;303.37;;;122.37;;
28007;SDS011;15333;50.010;20.020;2022-12-19T00:42:27;308.23;;;121.55;;
28007;SDS011;15333;50.010;20.020;2022-12-19T00:45:28;311.63;;;120.03;;
28007;SDS011;15333;50.010;20.020;2022-12-19T00:48:31;309.23;;;116.45;;
28007;SDS011;15333;50.010;20.020;2022-12-19T00:51:33;288.33;;;117.60;;
28007;SDS011;15333;50.010;20.020;2022-12-19T00:54:35;314.42;;;123.90;;
28007;SDS011;15333;50.010;20.020;2022-12-19T00:57:36;315.23;;;128.30;;
28007;SDS011;15333;50.010;20.020;2022-12-19T01:00:37;298.92;;;120.43;;
28007;SDS011;15333;50.010;20.020;2022-12-19T01:03:38;292.27;;;117.63;;
28007;SDS011;15333;50.010;20.020;2022-12-19T01:06:39;305.45;;;120.65;;
28007;SDS011;15333;50.010;20.020;2022-12-19T01:09:40;294.80;;;116.97;;
28007;SDS011;15333;50.010;20.020;2022-12-19T01:12:43;282.20;;;113.70;;
28007;SDS011;15333;50.010;20.020;2022-12-19T01:15:46;311.85;;;118.85;;
28007;SDS011;15333;50.010;20.020;2022-12-19T01:18:47;305.20;;;116.75;;
28007;SDS011;15333;50.010;20.020;2022-12-19T01:21:48;277.58;;;107.85;;
28007;SDS011;15333;50.010;20.020;2022-12-19T01:24:49;272.70;;;106.18;;
28007;SDS011;15333;50.010;20.020;2022-12-19T01:27:52;279.15;;;105.25;;
28007;SDS011;15333;50.010;20.020;2022-12-19T01:30:55;294.42;;;117.22;;
28007;SDS011;15333;50.010;20.020;2022-12-19T01:33:57;351.33;;;123.97;;
28007;SDS011;15333;50.010;20.020;2022-12-19T01:36:59;450.77;;;152.05;;
28007;SDS011;15333;50.010;20.020;2022-12-19T01:40:02;410.67;;;137.57;;
28007;SDS011;15333;50.010;20.020;2022-12-19T01:43:04;456.70;;;147.73;;
28007;SDS011;15333;50.010;20.020;2022-12-19T01:46:05;508.13;;;155.90;;
28007;SDS011;15333;50.010;20.020;2022-12-19T01:52:32;411.73;;;141.98;;
28007;SDS011;15333;50.010;20.020;2022-12-19T01:55:33;388.27;;;140.80;;
28007;SDS011;15333;50.010;20.020;2022-12-19T01:58:37;419.60;;;145.40;;
28007;SDS011;15333;50.010;20.020;2022-12-19T02:01:41;411.02;;;146.50;;
28007;SDS011;15333;50.010;20.020;2022-12-19T02:04:42;437.80;;;151.85;;
28007;SDS011;15333;50.010;20.020;2022-12-19T02:07:45;460.38;;;152.13;;
28007;SDS011;15333;50.010;20.020;2022-12-19T02:10:47;392.85;;;145.65;;
28007;SDS011;15333;50.010;20.020;2022-12-19T02:13:48;479.15;;;172.85;;
28007;SDS011;15333;50.010;20.020;2022-12-19T02:23:43;487.10;;;186.23;;
28007;SDS011;15333;50.010;20.020;2022-12-19T02:30:13;448.75;;;165.23;;
28007;SDS011;15333;50.010;20.020;2022-12-19T02:33:23;429.23;;;158.27;;
28007;SDS011;15333;50.010;20.020;2022-12-19T02:36:43;425.30;;;162.15;;
28007;SDS011;15333;50.010;20.020;2022-12-19T02:39:54;439.02;;;168.35;;
28007;SDS011;15333;50.010;20.020;2022-12-19T02:51:30;355.27;;;135.77;;
28007;SDS011;15333;50.010;20.020;2022-12-19T02:54:31;365.10;;;136.43;;
28007;SDS011;15333;50.010;20.020;2022-12-19T03:01:09;355.08;;;131.07;;
28007;SDS011;15333;50.010;20.020;2022-12-19T03:10:56;331.20;;;120.90;;
28007;SDS011;15333;50.010;20.020;2022-12-19T03:14:07;326.48;;;123.25;;
28007;SDS011;15333;50.010;20.020;2022-12-19T03:17:11;350.30;;;133.73;;
28007;SDS011;15333;50.010;20.020;2022-12-19T03:20:18;347.15;;;129.18;;
28007;SDS011;15333;50.010;20.020;2022-12-19T03:23:41;332.27;;;128.00;;
28007;SDS011;15333;50.010;20.020;2022-12-19T03:26:52;339.40;;;130.75;;
28007;SDS011;15333;50.010;20.020;2022-12-19T03:29:59;343.98;;;134.18;;
28007;SDS011;15333;50.010;20.020;2022-12-19T03:33:10;342.83;;;126.13;;
28007;SDS011;15333;50.010;20.020;2022-12-19T03:36:15;333.40;;;126.22;;
28007;SDS011;15333;50.010;20.020;2022-12-19T03:39:21;347.30;;;132.48;;
28007;SDS011;15333;50.010;20.020;2022-12-19T03:42:25;339.63;;;128.73;;
28007;SDS011;15333;50.010;20.020;2022-12-19T03:45:52;315.55;;;118.38;;
28007;SDS011;15333;50.010;20.020;2022-12-19T03:49:05;313.58;;;115.80;;
28007;SDS011;15333;50.010;20.020;2022-12-19T03:55:43;322.40;;;121.80;;
28007;SDS011;15333;50.010;20.020;2022-12-19T03:58:56;322.10;;;123.45;;
28007;SDS011;15333;50.010;20.020;2022-12-19T04:02:01;317.42;;;122.45;;
28007;SDS011;15333;50.010;20.020;2022-12-19T04:05:05;321.10;;;120.10;;
28007;SDS011;15333;50.010;20.020;2022-12-19T04:08:08;311.55;;;123.90;;
28007;SDS011;15333;50.010;20.020;2022-12-19T04:11:16;314.02;;;125.00;;
28007;SDS011;15333;50.010;20.020;2022-12-19T04:14:21;309.33;;;124.28;;
28007;SDS011;15333;50.010;20.020;2022-12-19T04:17:29;308.40;;;127.82;;
28007;SDS011;15333;50.010;20.020;2022-12-19T04:20:36;303.23;;;119.40;;
28007;SDS011;15333;50.010;20.020;2022-12-19T04:23:42;306.10;;;123.85;;
28007;SDS011;15333;50.010;20.020;2022-12-19T04:26:48;305.70;;;121.75;;
28007;SDS011;15333;50.010;20.020;2022-12-19T04:29:53;296.67;;;121.90;;
28007;SDS011;15333;50.010;20.020;2022-12-19T04:32:57;300.55;;;124.30;;
28007;SDS011;15333;50.010;20.020;2022-12-19T04:35:58;317.02;;;124.80;;
28007;SDS011;15333;50.010;20.020;2022-12-19T04:38:59;297.58;;;122.55;;
28007;SDS011;15333;50.010;20.020;2022-12-19T04:42:00;280.20;;;118.55;;
28007;SDS011;15333;50.010;20.020;2022-12-19T04:45:01;315.25;;;119.50;;
28007;SDS011;15333;50.010;20.020;2022-12-19T04:48:04;389.55;;;122.80;;
28007;SDS011;15333;50.010;20.020;2022-12-19T04:51:05;316.10;;;128.23;;
28007;SDS011;15333;50.010;20.020;2022-12-19T04:54:06;349.17;;;132.98;;
28007;SDS011;15333;50.010;20.020;2022-12-19T04:57:07;386.15;;;128.55;;
28007;SDS011;15333;50.010;20.020;2022-12-19T05:00:08;307.77;;;125.25;;
28007;SDS011;15333;50.010;20.020;2022-12-19T05:03:10;325.30;;;129.98;;
28007;SDS011;15333;50.010;20.020;2022-12-19T05:06:12;332.60;;;131.90;;
28007;SDS011;15333;50.010;20.020;2022-12-19T05:09:13;332.88;;;127.57;;
28007;SDS011;15333;50.010;20.020;2022-12-19T05:12:15;324.80;;;127.95;;
28007;SDS011;15333;50.010;20.020;2022-12-19T05:15:15;309.73;;;125.68;;
28007;SDS011;15333;50.010;20.020;2022-12-19T05:18:16;316.98;;;124.10;;
28007;SDS011;15333;50.010;20.020;2022-12-19T05:21:17;317.40;;;128.05;;
28007;SDS011;15333;50.010;20.020;2022-12-19T05:24:18;323.90;;;131.18;;
28007;SDS011;15333;50.010;20.020;2022-12-19T05:27:19;329.02;;;134.95;;
28007;SDS011;15333;50.010;20.020;2022-12-19T05:30:20;350.35;;;138.98;;
28007;SDS011;15333;50.010;20.020;2022-12-19T05:33:22;315.25;;;123.95;;
28007;SDS011;15333;50.010;20.020;2022-12-19T05:36:23;352.70;;;125.57;;
28007;SDS011;15333;50.010;20.020;2022-12-19T05:39:24;435.92;;;141.57;;
28007;SDS011;15333;50.010;20.020;2022-12-19T05:42:25;302.25;;;115.07;;
28007;SDS011;15333;50.010;20.020;2022-12-19T05:45:26;327.02;;;117.20;;
28007;SDS011;15333;50.010;20.020;2022-12-19T05:48:27;331.58;;;117.35;;
28007;SDS011;15333;50.010;20.020;2022-12-19T05:51:28;353.83;;;115.10;;
28007;SDS011;15333;50.010;20.020;2022-12-19T05:54:29;323.45;;;118.18;;
28007;SDS011;15333;50.010;20.020;2022-12-19T05:57:30;317.80;;;123.10;;
28007;SDS011;15333;50.010;20.020;2022-12-19T06:00:31;372.92;;;123.95;;
28007;SDS011;15333;50.010;20.020;2022-12-19T06:03:31;310.80;;;120.35;;
28007;SDS011;15333;50.010;20.020;2022-12-19T06:06:32;317.83;;;118.45;;
28007;SDS011;15333;50.010;20.020;2022-12-19T06:09:33;322.00;;;117.13;;
28007;SDS011;15333;50.010;20.020;2022-12-19T06:12:34;279.65;;;110.63;;
28007;SDS011;15333;50.010;20.020;2022-12-19T06:15:35;366.30;;;120.63;;
28007;SDS011;15333;50.010;20.020;2022-12-19T06:18:36;309.10;;;112.63;;
28007;SDS011;15333;50.010;20.020;2022-12-19T06:21:37;289.33;;;109.55;;
28007;SDS011;15333;50.010;20.020;2022-12-19T06:24:38;347.20;;;118.97;;
28007;SDS011;15333;50.010;20.020;2022-12-19T06:27:38;318.38;;;109.30;;
28007;SDS011;15333;50.010;20.020;2022-12-19T06:30:39;289.25;;;109.68;;
28007;SDS011;15333;50.010;20.020;2022-12-19T06:33:40;310.00;;;113.28;;
28007;SDS011;15333;50.010;20.020;2022-12-19T06:36:41;314.60;;;115.40;;
28007;SDS011;15333;50.010;20.020;2022-12-19T06:39:42;301.30;;;113.13;;
28007;SDS011;15333;50.010;20.020;2022-12-19T06:42:43;318.05;;;123.90;;
28007;SDS011;15333;50.010;20.020;2022-12-19T06:45:46;309.88;;;113.93;;
28007;SDS011;15333;50.010;20.020;2022-12-19T06:48:47;294.77;;;109.63;;
28007;SDS011;15333;50.010;20.020;2022-12-19T06:51:48;304.77;;;114.22;;
28007;SDS011;15333;50.010;20.020;2022-12-19T06:54:49;315.52;;;115.72;;
28007;SDS011;15333;50.010;20.020;2022-12-19T06:57:50;284.13;;;113.82;;
28007;SDS011;15333;50.010;20.020;2022-12-19T07:00:51;269.80;;;108.13;;
28007;SDS011;15333;50.010;20.020;2022-12-19T07:03:52;273.85;;;107.35;;
28007;SDS011;15333;50.010;20.020;2022-12-19T07:06:54;248.35;;;99.80;;
28007;SDS011;15333;50.010;20.020;2022-12-19T07:09:56;253.00;;;104.22;;
28007;SDS011;15333;50.010;20.020;2022-12-19T07:12:57;242.95;;;100.20;;
28007;SDS011;15333;50.010;20.020;2022-12-19T07:15:58;241.13;;;98.20;;
28007;SDS011;15333;50.010;20.020;2022-12-19T07:19:02;264.48;;;103.22;;
28007;SDS011;15333;50.010;20.020;2022-12-19T07:22:04;259.38;;;105.20;;
28007;SDS011;15333;50.010;20.020;2022-12-19T07:25:06;254.85;;;102.18;;
28007;SDS011;15333;50.010;20.020;2022-12-19T07:28:07;243.05;;;99.25;;
28007;SDS011;15333;50.010;20.020;2022-12-19T07:31:08;238.98;;;96.55;;
28007;SDS011;15333;50.010;20.020;2022-12-19T07:34:09;249.88;;;100.68;;
28007;SDS011;15333;50.010;20.020;2022-12-19T07:37:10;251.63;;;100.63;;
28007;SDS011;15333;50.010;20.020;2022-12-19T07:40:11;238.68;;;96.43;;
28007;SDS011;15333;50.010;20.020;2022-12-19T07:43:13;232.73;;;96.53;;
28007;SDS011;15333;50.010;20.020;2022-12-19T07:46:14;244.57;;;98.75;;
28007;SDS011;15333;50.010;20.020;2022-12-19T07:49:15;222.77;;;93.30;;
28007;SDS011;15333;50.010;20.020;2022-12-19T07:52:16;228.93;;;95.38;;
28007;SDS011;15333;50.010;20.020;2022-12-19T07:55:17;228.57;;;94.05;;
28007;SDS011;15333;50.010;20.020;2022-12-19T07:58:17;246.82;;;108.38;;
28007;SDS011;15333;50.010;20.020;2022-12-19T08:01:19;242.90;;;100.28;;
28007;SDS011;15333;50.010;20.020;2022-12-19T08:04:19;246.57;;;103.78;;
28007;SDS011;15333;50.010;20.020;2022-12-19T08:07:20;248.80;;;101.97;;
28007;SDS011;15333;50.010;20.020;2022-12-19T08:10:22;240.25;;;100.13;;
28007;SDS011;15333;50.010;20.020;2022-12-19T08:13:23;240.05;;;98.10;;
28007;SDS011;15333;50.010;20.020;2022-12-19T08:16:24;235.60;;;95.22;;
28007;SDS011;15333;50.010;20.020;2022-12-19T08:19:26;233.93;;;95.90;;
28007;SDS011;15333;50.010;20.020;2022-12-19T08:22:30;241.88;;;96.95;;
28007;SDS011;15333;50.010;20.020;2022-12-19T08:25:31;242.23;;;99.10;;
28007;SDS011;15333;50.010;20.020;2022-12-19T08:28:33;252.60;;;102.75;;
28007;SDS011;15333;50.010;20.020;2022-12-19T08:31:35;249.60;;;102.35;;
28007;SDS011;15333;50.010;20.020;2022-12-19T08:34:36;235.27;;;94.35;;
28007;SDS011;15333;50.010;20.020;2022-12-19T08:37:37;230.98;;;94.63;;
28007;SDS011;15333;50.010;20.020;2022-12-19T08:40:38;226.98;;;95.72;;
28007;SDS011;15333;50.010;20.020;2022-12-19T08:43:39;246.88;;;95.55;;
28007;SDS011;15333;50.010;20.020;2022-12-19T08:46:40;236.32;;;96.93;;
28007;SDS011;15333;50.010;20.020;2022-12-19T08:49:41;234.85;;;95.85;;
28007;SDS011;15333;50.010;20.020;2022-12-19T08:52:42;242.80;;;98.68;;
28007;SDS011;15333;50.010;20.020;2022-12-19T08:55:43;234.55;;;97.47;;
28007;SDS011;15333;50.010;20.020;2022-12-19T08:58:44;223.95;;;94.47;;
28007;SDS011;15333;50.010;20.020;2022-12-19T09:01:46;229.90;;;97.72;;
28007;SDS011;15333;50.010;20.020;2022-12-19T09:04:46;223.02;;;96.32;;
28007;SDS011;15333;50.010;20.020;2022-12-19T09:07:47;237.52;;;100.15;;
28007;SDS011;15333;50.010;20.020;2022-12-19T09:10:48;238.65;;;103.45;;
28007;SDS011;15333;50.010;20.020;2022-12-19T09:13:49;243.40;;;100.72;;
28007;SDS011;15333;50.010;20.020;2022-12-19T09:16:51;235.15;;;99.53;;
28007;SDS011;15333;50.010;20.020;2022-12-19T09:19:52;230.45;;;98.10;;
28007;SDS011;15333;50.010;20.020;2022-12-19T09:22:52;248.43;;;96.93;;
28007;SDS011;15333;50.010;20.020;2022-12-19T09:25:54;230.68;;;92.53;;
28007;SDS011;15333;50.010;20.020;2022-12-19T09:28:56;229.38;;;97.03;;
28007;SDS011;15333;50.010;20.020;2022-12-19T09:31:57;228.57;;;96.18;;
28007;SDS011;15333;50.010;20.020;2022-12-19T09:34:58;219.57;;;91.90;;
28007;SDS011;15333;50.010;20.020;2022-12-19T09:37:59;217.93;;;88.90;;
28007;SDS011;15333;50.010;20.020;2022-12-19T09:47:28;194.90;;;84.78;;
28007;SDS011;15333;50.010;20.020;2022-12-19T09:57:14;212.70;;;91.93;;
28007;SDS011;15333;50.010;20.020;2022-12-19T10:00:35;204.00;;;88.47;;
28007;SDS011;15333;50.010;20.020;2022-12-19T10:03:43;212.38;;;87.68;;
28007;SDS011;15333;50.010;20.020;2022-12-19T10:06:50;194.00;;;83.70;;
28007;SDS011;15333;50.010;20.020;2022-12-19T10:09:51;190.50;;;82.95;;
28007;SDS011;15333;50.010;20.020;2022-12-19T10:19:44;196.88;;;86.82;;
28007;SDS011;15333;50.010;20.020;2022-12-19T10:35:59;179.80;;;76.50;;
28007;SDS011;15333;50.010;20.020;2022-12-19T10:39:15;179.10;;;76.18;;
28007;SDS011;15333;50.010;20.020;2022-12-19T10:45:33;154.93;;;66.25;;
28007;SDS011;15333;50.010;20.020;2022-12-19T10:48:38;154.88;;;67.43;;
28007;SDS011;15333;50.010;20.020;2022-12-19T10:51:39;162.98;;;67.38;;
28007;SDS011;15333;50.010;20.020;2022-12-19T10:54:42;164.48;;;67.43;;
28007;SDS011;15333;50.010;20.020;2022-12-19T10:57:43;168.65;;;68.25;;
28007;SDS011;15333;50.010;20.020;2022-12-19T11:01:04;172.60;;;68.65;;
28007;SDS011;15333;50.010;20.020;2022-12-19T11:07:21;179.15;;;76.05;;
28007;SDS011;15333;50.010;20.020;2022-12-19T11:13:45;181.00;;;76.18;;
28007;SDS011;15333;50.010;20.020;2022-12-19T11:16:47;181.32;;;76.22;;
28007;SDS011;15333;50.010;20.020;2022-12-19T11:19:47;199.18;;;80.65;;
28007;SDS011;15333;50.010;20.020;2022-12-19T11:22:52;186.93;;;82.90;;
28007;SDS011;15333;50.010;20.020;2022-12-19T11:25:58;186.80;;;80.70;;
28007;SDS011;15333;50.010;20.020;2022-12-19T11:29:18;194.00;;;80.68;;
28007;SDS011;15333;50.010;20.020;2022-12-19T11:32:37;199.00;;;83.10;;
28007;SDS011;15333;50.010;20.020;2022-12-19T11:35:47;202.90;;;82.10;;
28007;SDS011;15333;50.010;20.020;2022-12-19T11:38:48;199.57;;;83.63;;
28007;SDS011;15333;50.010;20.020;2022-12-19T11:41:59;210.70;;;85.43;;
28007;SDS011;15333;50.010;20.020;2022-12-19T11:45:11;213.35;;;92.75;;
28007;SDS011;15333;50.010;20.020;2022-12-19T11:55:04;209.88;;;86.53;;
28007;SDS011;15333;50.010;20.020;2022-12-19T11:58:14;220.05;;;90.15;;
28007;SDS011;15333;50.010;20.020;2022-12-19T12:07:51;236.77;;;102.65;;
28007;SDS011;15333;50.010;20.020;2022-12-19T12:21:23;233.27;;;98.80;;
28007;SDS011;15333;50.010;20.020;2022-12-19T12:24:34;251.50;;;96.25;;
28007;SDS011;15333;50.010;20.020;2022-12-19T12:27:51;240.20;;;104.50;;
28007;SDS011;15333;50.010;20.020;2022-12-19T12:34:31;245.75;;;111.03;;
28007;SDS011;15333;50.010;20.020;2022-12-19T12:38:20;247.88;;;104.00;;
28007;SDS011;15333;50.010;20.020;2022-12-19T12:45:09;227.52;;;90.82;;
28007;SDS011;15333;50.010;20.020;2022-12-19T12:48:29;217.43;;;93.50;;
28007;SDS011;15333;50.010;20.020;2022-12-19T12:51:35;216.18;;;94.72;;
28007;SDS011;15333;50.010;20.020;2022-12-19T12:54:38;204.73;;;87.55;;
28007;SDS011;15333;50.010;20.020;2022-12-19T12:57:42;210.05;;;84.18;;
28007;SDS011;15333;50.010;20.020;2022-12-19T13:00:43;215.30;;;91.20;;
28007;SDS011;15333;50.010;20.020;2022-12-19T13:07:25;222.30;;;89.32;;
28007;SDS011;15333;50.010;20.020;2022-12-19T13:10:27;216.32;;;93.38;;
28007;SDS011;15333;50.010;20.020;2022-12-19T13:23:21;234.68;;;100.38;;
28007;SDS011;15333;50.010;20.020;2022-12-19T13:26:44;233.55;;;96.50;;
28007;SDS011;15333;50.010;20.020;2022-12-19T13:33:14;238.80;;;97.38;;
28007;SDS011;15333;50.010;20.020;2022-12-19T13:43:16;241.98;;;99.28;;
28007;SDS011;15333;50.010;20.020;2022-12-19T13:46:42;263.85;;;107.50;;
28007;SDS011;15333;50.010;20.020;2022-12-19T13:49:45;262.45;;;111.90;;
28007;SDS011;15333;50.010;20.020;2022-12-19T13:52:47;247.73;;;101.30;;
28007;SDS011;15333;50.010;20.020;2022-12-19T13:55:58;249.05;;;95.90;;
28007;SDS011;15333;50.010;20.020;2022-12-19T13:59:01;237.48;;;98.10;;
28007;SDS011;15333;50.010;20.020;2022-12-19T14:02:14;254.30;;;102.28;;
28007;SDS011;15333;50.010;20.020;2022-12-19T14:05:20;254.50;;;103.03;;
28007;SDS011;15333;50.010;20.020;2022-12-19T14:08:26;257.40;;;103.65;;
28007;SDS011;15333;50.010;20.020;2022-12-19T14:11:28;258.17;;;104.32;;
28007;SDS011;15333;50.010;20.020;2022-12-19T14:14:29;259.27;;;104.10;;
28007;SDS011;15333;50.010;20.020;2022-12-19T14:17:49;265.10;;;108.83;;
28007;SDS011;15333;50.010;20.020;2022-12-19T14:20:54;271.35;;;109.32;;
28007;SDS011;15333;50.010;20.020;2022-12-19T14:24:17;289.30;;;116.43;;
28007;SDS011;15333;50.010;20.020;2022-12-19T14:27:26;283.27;;;127.30;;
28007;SDS011;15333;50.010;20.020;2022-12-19T14:30:34;279.67;;;122.80;;
28007;SDS011;15333;50.010;20.020;2022-12-19T14:33:41;300.52;;;125.43;;
28007;SDS011;15333;50.010;20.020;2022-12-19T14:36:51;294.73;;;128.52;;
28007;SDS011;15333;50.010;20.020;2022-12-19T14:39:56;301.88;;;126.05;;
28007;SDS011;15333;50.010;20.020;2022-12-19T14:43:00;311.10;;;125.93;;
28007;SDS011;15333;50.010;20.020;2022-12-19T14:46:24;323.77;;;135.43;;
28007;SDS011;15333;50.010;20.020;2022-12-19T14:49:31;307.88;;;130.10;;
28007;SDS011;15333;50.010;20.020;2022-12-19T14:52:41;323.00;;;135.75;;
28007;SDS011;15333;50.010;20.020;2022-12-19T14:55:43;325.20;;;141.02;;
28007;SDS011;15333;50.010;20.020;2022-12-19T14:58:54;327.63;;;144.25;;
28007;SDS011;15333;50.010;20.020;2022-12-19T15:05:09;343.65;;;146.23;;
28007;SDS011;15333;50.010;20.020;2022-12-19T15:08:15;325.30;;;142.10;;
28007;SDS011;15333;50.010;20.020;2022-12-19T15:11:31;321.00;;;145.65;;
28007;SDS011;15333;50.010;20.020;2022-12-19T15:15:00;322.38;;;143.60;;
28007;SDS011;15333;50.010;20.020;2022-12-19T15:18:15;325.83;;;140.57;;
28007;SDS011;15333;50.010;20.020;2022-12-19T15:21:19;320.55;;;139.63;;
28007;SDS011;15333;50.010;20.020;2022-12-19T15:24:20;289.30;;;124.88;;
28007;SDS011;15333;50.010;20.020;2022-12-19T15:27:20;308.80;;;131.80;;
28007;SDS011;15333;50.010;20.020;2022-12-19T15:30:21;311.90;;;132.93;;
28007;SDS011;15333;50.010;20.020;2022-12-19T15:33:22;323.63;;;137.15;;
28007;SDS011;15333;50.010;20.020;2022-12-19T15:36:23;338.70;;;145.68;;
28007;SDS011;15333;50.010;20.020;2022-12-19T15:39:24;324.00;;;140.82;;
28007;SDS011;15333;50.010;20.020;2022-12-19T15:42:29;324.45;;;143.20;;
28007;SDS011;15333;50.010;20.020;2022-12-19T15:45:30;328.02;;;136.07;;
28007;SDS011;15333;50.010;20.020;2022-12-19T15:48:32;351.67;;;140.95;;
28007;SDS011;15333;50.010;20.020;2022-12-19T15:51:38;350.00;;;152.18;;
28007;SDS011;15333;50.010;20.020;2022-12-19T15:54:40;357.35;;;155.68;;
28007;SDS011;15333;50.010;20.020;2022-12-19T15:57:45;359.20;;;155.85;;
28007;SDS011;15333;50.010;20.020;2022-12-19T16:03:54;341.63;;;153.77;;
28007;SDS011;15333;50.010;20.020;2022-12-19T16:06:56;330.30;;;150.68;;
28007;SDS011;15333;50.010;20.020;2022-12-19T16:09:56;343.10;;;156.00;;
28007;SDS011;15333;50.010;20.020;2022-12-19T16:12:58;314.40;;;137.57;;
28007;SDS011;15333;50.010;20.020;2022-12-19T16:15:58;328.98;;;145.90;;
28007;SDS011;15333;50.010;20.020;2022-12-19T16:19:00;344.75;;;149.27;;
28007;SDS011;15333;50.010;20.020;2022-12-19T16:22:01;317.63;;;138.85;;
28007;SDS011;15333;50.010;20.020;2022-12-19T16:25:09;329.25;;;148.73;;
28007;SDS011;15333;50.010;20.020;2022-12-19T16:31:29;367.38;;;163.18;;
28007;SDS011;15333;50.010;20.020;2022-12-19T16:34:30;356.25;;;149.32;;
28007;SDS011;15333;50.010;20.020;2022-12-19T16:37:31;360.60;;;151.70;;
28007;SDS011;15333;50.010;20.020;2022-12-19T16:40:31;348.30;;;141.55;;
28007;SDS011;15333;50.010;20.020;2022-12-19T16:43:36;344.90;;;146.98;;
28007;SDS011;15333;50.010;20.020;2022-12-19T16:46:39;354.98;;;159.43;;
28007;SDS011;15333;50.010;20.020;2022-12-19T16:49:40;371.85;;;158.20;;
28007;SDS011;15333;50.010;20.020;2022-12-19T16:52:42;377.48;;;167.07;;
28007;SDS011;15333;50.010;20.020;2022-12-19T16:55:43;364.83;;;154.95;;
28007;SDS011;15333;50.010;20.020;2022-12-19T16:58:45;362.85;;;151.18;;
28007;SDS011;15333;50.010;20.020;2022-12-19T17:01:47;359.98;;;145.80;;
28007;SDS011;15333;50.010;20.020;2022-12-19T17:04:48;355.48;;;148.55;;
28007;SDS011;15333;50.010;20.020;2022-12-19T17:07:49;352.65;;;142.13;;
28007;SDS011;15333;50.010;20.020;2022-12-19T17:10:51;363.67;;;146.20;;
28007;SDS011;15333;50.010;20.020;2022-12-19T17:13:59;360.45;;;157.57;;
28007;SDS011;15333;50.010;20.020;2022-12-19T17:17:03;350.60;;;152.18;;
28007;SDS011;15333;50.010;20.020;2022-12-19T17:20:05;352.15;;;146.93;;
28007;SDS011;15333;50.010;20.020;2022-12-19T17:23:20;348.02;;;157.43;;
28007;SDS011;15333;50.010;20.020;2022-12-19T17:26:22;345.85;;;150.50;;
28007;SDS011;15333;50.010;20.020;2022-12-19T17:29:23;346.55;;;143.25;;
28007;SDS011;15333;50.010;20.020;2022-12-19T17:32:24;332.25;;;137.88;;
28007;SDS011;15333;50.010;20.020;2022-12-19T17:35:26;341.63;;;137.18;;
28007;SDS011;15333;50.010;20.020;2022-12-19T17:38:30;337.08;;;138.52;;
28007;SDS011;15333;50.010;20.020;2022-12-19T17:41:30;345.23;;;135.65;;
28007;SDS011;15333;50.010;20.020;2022-12-19T17:44:32;341.65;;;139.32;;
28007;SDS011;15333;50.010;20.020;2022-12-19T17:47:33;334.75;;;140.45;;
28007;SDS011;15333;50.010;20.020;2022-12-19T17:50:36;360.25;;;142.57;;
28007;SDS011;15333;50.010;20.020;2022-12-19T17:53:38;362.42;;;156.15;;
28007;SDS011;15333;50.010;20.020;2022-12-19T17:56:39;350.05;;;151.45;;
28007;SDS011;15333;50.010;20.020;2022-12-19T17:59:40;359.75;;;143.60;;
28007;SDS011;15333;50.010;20.020;2022-12-19T18:02:41;335.90;;;137.75;;
28007;SDS011;15333;50.010;20.020;2022-12-19T18:05:44;337.77;;;141.45;;
28007;SDS011;15333;50.010;20.020;2022-12-19T18:08:45;348.48;;;137.27;;
28007;SDS011;15333;50.010;20.020;2022-12-19T18:11:46;346.48;;;137.35;;
28007;SDS011;15333;50.010;20.020;2022-12-19T18:14:49;338.23;;;133.13;;
28007;SDS011;15333;50.010;20.020;2022-12-19T18:17:51;348.02;;;143.77;;
28007;SDS011;15333;50.010;20.020;2022-12-19T18:20:53;326.60;;;138.65;;
28007;SDS011;15333;50.010;20.020;2022-12-19T18:23:54;327.25;;;128.48;;
28007;SDS011;15333;50.010;20.020;2022-12-19T18:26:55;315.50;;;124.53;;
28007;SDS011;15333;50.010;20.020;2022-12-19T18:29:56;328.50;;;126.10;;
28007;SDS011;15333;50.010;20.020;2022-12-19T18:32:59;322.48;;;127.35;;
28007;SDS011;15333;50.010;20.020;2022-12-19T18:36:00;317.65;;;129.02;;
28007;SDS011;15333;50.010;20.020;2022-12-19T18:39:02;324.05;;;131.02;;
28007;SDS011;15333;50.010;20.020;2022-12-19T18:42:08;320.30;;;127.90;;
28007;SDS011;15333;50.010;20.020;2022-12-19T18:45:20;305.45;;;125.10;;
28007;SDS011;15333;50.010;20.020;2022-12-19T18:48:28;321.85;;;124.93;;
28007;SDS011;15333;50.010;20.020;2022-12-19T18:51:32;307.35;;;126.80;;
28007;SDS011;15333;50.010;20.020;2022-12-19T18:54:33;324.05;;;124.18;;
28007;SDS011;15333;50.010;20.020;2022-12-19T18:57:34;329.45;;;129.75;;
28007;SDS011;15333;50.010;20.020;2022-12-19T19:00:34;326.88;;;127.32;;
28007;SDS011;15333;50.010;20.020;2022-12-19T19:03:38;319.33;;;124.63;;
28007;SDS011;15333;50.010;20.020;2022-12-19T19:06:40;323.13;;;125.65;;
28007;SDS011;15333;50.010;20.020;2022-12-19T19:09:41;323.45;;;124.93;;
28007;SDS011;15333;50.010;20.020;2022-12-19T19:13:00;333.35;;;126.75;;
28007;SDS011;15333;50.010;20.020;2022-12-19T19:16:05;340.85;;;131.13;;
28007;SDS011;15333;50.010;20.020;2022-12-19T19:19:15;317.13;;;127.13;;
28007;SDS011;15333;50.010;20.020;2022-12-19T19:22:17;331.65;;;129.48;;
28007;SDS011;15333;50.010;20.020;2022-12-19T19:25:18;333.15;;;127.65;;
28007;SDS011;15333;50.010;20.020;2022-12-19T19:28:20;321.38;;;128.25;;
28007;SDS011;15333;50.010;20.020;2022-12-19T19:31:22;319.48;;;129.27;;
28007;SDS011;15333;50.010;20.020;2022-12-19T19:34:28;325.58;;;128.95;;
28007;SDS011;15333;50.010;20.020;2022-12-19T19:37:33;321.05;;;127.13;;